Česky Dansk Deutsch English Español Suomi Français Magyar Italiano Nederlands norsk Polski Português svenska Türkçe

 

Het Weer

Kardla (Estland)

14:50, 21 augustus 2016 (GMT)

NWNNE
WE
SWSSE
Home            
Kardla Kuressaare Parnu Tallinn Turku Helsinki-Malmi Helsinki-Vantaa Ventspils Mariehamn / Aland Island Riga Tartu/Ulenurme Riga International Airport Tampere / Pirkkala Stockholm / Bromma Pori Stockholm / Arlanda Liepaja International Airport Visby Flygplats Uppsala Utti Halli Stockholm/Skavsta Siauliai Intl./Mil.

Om een weerknop op uw website of weblog te plaatsen, copieer onderstaande code en plak die in uw pagina. In het eerste vakje staat HTML-code, in het tweede vakje UBB-code.


Add to Google

Details

Wind speed:4 bf, 11 kn, 5.7 m/s, 12.7 miles/h, 20.4 km/h
Wind direction:SSE, 160°
Visibility:Greater than 10000 m, 10 km, 32800 ft, 6.2 miles
Clouds:CAVOC
Temperature:23°C, 73°F
Gefühlte Temperatur:24°C, 76°F
Dew-point:16°C, 61°F
Atmospheric pressure:1016 hPa, 762.1 mmHg, 30.00 inHg, 1.003 atm
Relative humidity:64.7 %
METAR:EEKA 211450Z 16011KT CAVOK 23/16 Q1016

Snelkoppelingen

Actuele weersinformatie van de hele wereld. Voeg locaties toe met het plus (+) symbool. Deze snelkoppelingen kunnen worden toegevoegd aan Google.

Lid van de Technetium groep

website free tracking
StatCounter NetStat W3C Validator

23-10-2020 01:37:48
astro.technetium.be money.technetium.be phote.technetium.be tafeltennistafel.technetium.be www.ligfiets.net